sensor_id;sensor_type;location;lat;lon;timestamp;P1;durP1;ratioP1;P2;durP2;ratioP2
42132;SDS011;70517;48.192;16.278;2023-06-10T00:01:16;2.70;;;2.42;;
42132;SDS011;70517;48.192;16.278;2023-06-10T00:04:16;1.97;;;1.87;;
42132;SDS011;70517;48.192;16.278;2023-06-10T00:07:16;4.18;;;2.38;;
42132;SDS011;70517;48.192;16.278;2023-06-10T00:10:16;3.07;;;2.37;;
42132;SDS011;70517;48.192;16.278;2023-06-10T00:13:17;2.40;;;2.20;;
42132;SDS011;70517;48.192;16.278;2023-06-10T00:16:17;2.42;;;2.22;;
42132;SDS011;70517;48.192;16.278;2023-06-10T00:22:18;2.35;;;2.05;;
42132;SDS011;70517;48.192;16.278;2023-06-10T00:25:19;4.20;;;2.07;;
42132;SDS011;70517;48.192;16.278;2023-06-10T00:28:19;2.40;;;2.20;;
42132;SDS011;70517;48.192;16.278;2023-06-10T00:31:19;2.95;;;2.30;;
42132;SDS011;70517;48.192;16.278;2023-06-10T00:34:20;2.90;;;2.22;;
42132;SDS011;70517;48.192;16.278;2023-06-10T00:37:20;2.40;;;2.20;;
42132;SDS011;70517;48.192;16.278;2023-06-10T00:40:21;2.60;;;2.10;;
42132;SDS011;70517;48.192;16.278;2023-06-10T00:43:21;2.30;;;2.10;;
42132;SDS011;70517;48.192;16.278;2023-06-10T00:46:21;2.43;;;2.23;;
42132;SDS011;70517;48.192;16.278;2023-06-10T00:49:23;3.80;;;2.40;;
42132;SDS011;70517;48.192;16.278;2023-06-10T00:52:25;3.40;;;2.20;;
42132;SDS011;70517;48.192;16.278;2023-06-10T00:55:27;4.90;;;2.53;;
42132;SDS011;70517;48.192;16.278;2023-06-10T00:58:27;2.60;;;2.40;;
42132;SDS011;70517;48.192;16.278;2023-06-10T01:01:28;2.37;;;2.17;;
42132;SDS011;70517;48.192;16.278;2023-06-10T01:04:29;2.67;;;2.38;;
42132;SDS011;70517;48.192;16.278;2023-06-10T01:07:32;2.80;;;2.27;;
42132;SDS011;70517;48.192;16.278;2023-06-10T01:10:41;3.55;;;2.58;;
42132;SDS011;70517;48.192;16.278;2023-06-10T01:13:41;4.00;;;2.45;;
42132;SDS011;70517;48.192;16.278;2023-06-10T01:16:42;2.90;;;2.53;;
42132;SDS011;70517;48.192;16.278;2023-06-10T01:19:52;2.53;;;2.33;;
42132;SDS011;70517;48.192;16.278;2023-06-10T01:22:53;2.15;;;1.88;;
42132;SDS011;70517;48.192;16.278;2023-06-10T01:26:02;3.17;;;2.25;;
42132;SDS011;70517;48.192;16.278;2023-06-10T01:29:07;3.17;;;2.15;;
42132;SDS011;70517;48.192;16.278;2023-06-10T01:32:16;3.67;;;2.65;;
42132;SDS011;70517;48.192;16.278;2023-06-10T01:35:17;2.20;;;2.03;;
42132;SDS011;70517;48.192;16.278;2023-06-10T01:41:19;2.92;;;2.05;;
42132;SDS011;70517;48.192;16.278;2023-06-10T01:44:21;3.45;;;2.42;;
42132;SDS011;70517;48.192;16.278;2023-06-10T01:47:21;2.95;;;2.38;;
42132;SDS011;70517;48.192;16.278;2023-06-10T01:50:22;2.40;;;2.10;;
42132;SDS011;70517;48.192;16.278;2023-06-10T01:53:22;2.80;;;2.30;;
42132;SDS011;70517;48.192;16.278;2023-06-10T01:56:22;2.67;;;2.47;;
42132;SDS011;70517;48.192;16.278;2023-06-10T01:59:22;3.00;;;2.37;;
42132;SDS011;70517;48.192;16.278;2023-06-10T02:02:23;3.33;;;2.40;;
42132;SDS011;70517;48.192;16.278;2023-06-10T02:05:24;2.70;;;2.15;;
42132;SDS011;70517;48.192;16.278;2023-06-10T02:08:25;2.50;;;2.30;;
42132;SDS011;70517;48.192;16.278;2023-06-10T02:11:25;2.33;;;2.13;;
42132;SDS011;70517;48.192;16.278;2023-06-10T02:14:26;2.70;;;2.50;;
42132;SDS011;70517;48.192;16.278;2023-06-10T02:17:26;2.73;;;2.37;;
42132;SDS011;70517;48.192;16.278;2023-06-10T02:20:27;2.60;;;2.40;;
42132;SDS011;70517;48.192;16.278;2023-06-10T02:23:27;3.90;;;2.75;;
42132;SDS011;70517;48.192;16.278;2023-06-10T02:26:28;2.97;;;2.60;;
42132;SDS011;70517;48.192;16.278;2023-06-10T02:29:28;3.50;;;2.63;;
42132;SDS011;70517;48.192;16.278;2023-06-10T02:32:28;2.47;;;2.27;;
42132;SDS011;70517;48.192;16.278;2023-06-10T02:35:28;2.33;;;2.10;;
42132;SDS011;70517;48.192;16.278;2023-06-10T02:38:28;3.17;;;2.33;;
42132;SDS011;70517;48.192;16.278;2023-06-10T02:41:29;3.57;;;2.83;;
42132;SDS011;70517;48.192;16.278;2023-06-10T02:44:29;3.97;;;2.80;;
42132;SDS011;70517;48.192;16.278;2023-06-10T02:47:29;3.30;;;3.00;;
42132;SDS011;70517;48.192;16.278;2023-06-10T02:50:30;3.40;;;2.88;;
42132;SDS011;70517;48.192;16.278;2023-06-10T02:53:30;3.10;;;2.80;;
42132;SDS011;70517;48.192;16.278;2023-06-10T02:56:30;3.10;;;2.80;;
42132;SDS011;70517;48.192;16.278;2023-06-10T02:59:31;4.35;;;2.90;;
42132;SDS011;70517;48.192;16.278;2023-06-10T03:02:31;3.17;;;2.88;;
42132;SDS011;70517;48.192;16.278;2023-06-10T03:05:32;3.20;;;2.90;;
42132;SDS011;70517;48.192;16.278;2023-06-10T03:08:32;4.20;;;2.80;;
42132;SDS011;70517;48.192;16.278;2023-06-10T03:11:32;2.97;;;2.57;;
42132;SDS011;70517;48.192;16.278;2023-06-10T03:14:33;2.92;;;2.70;;
42132;SDS011;70517;48.192;16.278;2023-06-10T03:17:34;4.57;;;2.95;;
42132;SDS011;70517;48.192;16.278;2023-06-10T03:20:34;3.10;;;2.80;;
42132;SDS011;70517;48.192;16.278;2023-06-10T03:23:39;3.45;;;2.80;;
42132;SDS011;70517;48.192;16.278;2023-06-10T03:26:39;3.13;;;2.83;;
42132;SDS011;70517;48.192;16.278;2023-06-10T03:29:40;3.23;;;2.93;;
42132;SDS011;70517;48.192;16.278;2023-06-10T03:32:40;3.57;;;3.10;;
42132;SDS011;70517;48.192;16.278;2023-06-10T03:35:41;4.80;;;3.72;;
42132;SDS011;70517;48.192;16.278;2023-06-10T03:38:41;3.20;;;2.72;;
42132;SDS011;70517;48.192;16.278;2023-06-10T03:41:42;3.60;;;3.30;;
42132;SDS011;70517;48.192;16.278;2023-06-10T03:47:42;2.95;;;2.65;;
42132;SDS011;70517;48.192;16.278;2023-06-10T03:50:43;3.95;;;3.25;;
42132;SDS011;70517;48.192;16.278;2023-06-10T03:53:43;3.63;;;3.17;;
42132;SDS011;70517;48.192;16.278;2023-06-10T03:56:43;3.30;;;3.00;;
42132;SDS011;70517;48.192;16.278;2023-06-10T03:59:44;3.05;;;2.60;;
42132;SDS011;70517;48.192;16.278;2023-06-10T04:02:44;3.13;;;2.83;;
42132;SDS011;70517;48.192;16.278;2023-06-10T04:05:49;4.13;;;3.30;;
42132;SDS011;70517;48.192;16.278;2023-06-10T04:08:50;3.53;;;3.22;;
42132;SDS011;70517;48.192;16.278;2023-06-10T04:11:50;3.60;;;3.13;;
42132;SDS011;70517;48.192;16.278;2023-06-10T04:14:50;4.17;;;3.77;;
42132;SDS011;70517;48.192;16.278;2023-06-10T04:17:51;5.30;;;3.80;;
42132;SDS011;70517;48.192;16.278;2023-06-10T04:20:52;4.05;;;3.67;;
42132;SDS011;70517;48.192;16.278;2023-06-10T04:23:52;4.50;;;4.10;;
42132;SDS011;70517;48.192;16.278;2023-06-10T04:26:53;4.43;;;4.03;;
42132;SDS011;70517;48.192;16.278;2023-06-10T04:32:53;4.57;;;3.92;;
42132;SDS011;70517;48.192;16.278;2023-06-10T04:35:54;5.22;;;4.72;;
42132;SDS011;70517;48.192;16.278;2023-06-10T04:41:54;5.10;;;4.35;;
42132;SDS011;70517;48.192;16.278;2023-06-10T04:44:54;5.13;;;4.63;;
42132;SDS011;70517;48.192;16.278;2023-06-10T04:50:55;4.80;;;4.30;;
42132;SDS011;70517;48.192;16.278;2023-06-10T04:56:56;6.45;;;4.65;;
42132;SDS011;70517;48.192;16.278;2023-06-10T05:02:57;7.55;;;5.82;;
42132;SDS011;70517;48.192;16.278;2023-06-10T05:08:58;6.75;;;6.10;;
42132;SDS011;70517;48.192;16.278;2023-06-10T05:14:58;6.28;;;5.68;;
42132;SDS011;70517;48.192;16.278;2023-06-10T05:20:58;10.43;;;6.32;;
42132;SDS011;70517;48.192;16.278;2023-06-10T05:26:59;6.43;;;5.75;;
42132;SDS011;70517;48.192;16.278;2023-06-10T05:32:59;6.00;;;5.40;;
42132;SDS011;70517;48.192;16.278;2023-06-10T05:39:00;6.22;;;5.68;;
42132;SDS011;70517;48.192;16.278;2023-06-10T05:45:02;7.63;;;6.80;;
42132;SDS011;70517;48.192;16.278;2023-06-10T05:51:03;7.93;;;7.13;;
42132;SDS011;70517;48.192;16.278;2023-06-10T05:57:03;9.52;;;8.30;;
42132;SDS011;70517;48.192;16.278;2023-06-10T06:03:05;8.97;;;8.07;;
42132;SDS011;70517;48.192;16.278;2023-06-10T06:06:06;11.13;;;9.90;;
42132;SDS011;70517;48.192;16.278;2023-06-10T06:12:07;9.03;;;8.13;;
42132;SDS011;70517;48.192;16.278;2023-06-10T06:18:08;9.73;;;7.53;;
42132;SDS011;70517;48.192;16.278;2023-06-10T06:24:08;7.40;;;6.68;;
42132;SDS011;70517;48.192;16.278;2023-06-10T06:30:10;7.55;;;6.78;;
42132;SDS011;70517;48.192;16.278;2023-06-10T06:36:10;11.68;;;8.00;;
42132;SDS011;70517;48.192;16.278;2023-06-10T06:42:11;9.38;;;8.38;;
42132;SDS011;70517;48.192;16.278;2023-06-10T06:48:12;11.02;;;9.35;;
42132;SDS011;70517;48.192;16.278;2023-06-10T06:54:12;10.73;;;8.88;;
42132;SDS011;70517;48.192;16.278;2023-06-10T07:00:12;13.27;;;9.02;;
42132;SDS011;70517;48.192;16.278;2023-06-10T07:06:13;12.75;;;10.50;;
42132;SDS011;70517;48.192;16.278;2023-06-10T07:09:13;14.53;;;11.37;;
42132;SDS011;70517;48.192;16.278;2023-06-10T07:15:14;13.73;;;10.25;;
42132;SDS011;70517;48.192;16.278;2023-06-10T07:21:14;11.32;;;10.10;;
42132;SDS011;70517;48.192;16.278;2023-06-10T07:24:14;12.32;;;10.98;;
42132;SDS011;70517;48.192;16.278;2023-06-10T07:27:15;12.60;;;11.15;;
42132;SDS011;70517;48.192;16.278;2023-06-10T07:30:15;12.67;;;11.23;;
42132;SDS011;70517;48.192;16.278;2023-06-10T07:33:15;14.82;;;12.35;;
42132;SDS011;70517;48.192;16.278;2023-06-10T07:36:16;12.83;;;11.53;;
42132;SDS011;70517;48.192;16.278;2023-06-10T07:39:16;14.07;;;10.90;;
42132;SDS011;70517;48.192;16.278;2023-06-10T07:42:16;12.23;;;10.40;;
42132;SDS011;70517;48.192;16.278;2023-06-10T07:45:16;12.33;;;10.67;;
42132;SDS011;70517;48.192;16.278;2023-06-10T07:48:16;10.83;;;9.73;;
42132;SDS011;70517;48.192;16.278;2023-06-10T07:51:17;12.03;;;10.83;;
42132;SDS011;70517;48.192;16.278;2023-06-10T07:54:17;11.75;;;10.27;;
42132;SDS011;70517;48.192;16.278;2023-06-10T07:57:18;11.70;;;10.33;;
42132;SDS011;70517;48.192;16.278;2023-06-10T08:00:19;11.35;;;9.57;;
42132;SDS011;70517;48.192;16.278;2023-06-10T08:03:19;12.38;;;10.35;;
42132;SDS011;70517;48.192;16.278;2023-06-10T08:06:19;13.60;;;10.63;;
42132;SDS011;70517;48.192;16.278;2023-06-10T08:09:20;11.83;;;10.63;;
42132;SDS011;70517;48.192;16.278;2023-06-10T08:12:21;12.88;;;11.55;;
42132;SDS011;70517;48.192;16.278;2023-06-10T08:15:21;11.73;;;9.87;;
42132;SDS011;70517;48.192;16.278;2023-06-10T08:18:22;10.60;;;9.50;;
42132;SDS011;70517;48.192;16.278;2023-06-10T08:21:22;11.05;;;10.05;;
42132;SDS011;70517;48.192;16.278;2023-06-10T08:24:22;11.43;;;10.10;;
42132;SDS011;70517;48.192;16.278;2023-06-10T08:27:22;11.53;;;10.37;;
42132;SDS011;70517;48.192;16.278;2023-06-10T08:30:23;12.05;;;10.70;;
42132;SDS011;70517;48.192;16.278;2023-06-10T08:33:23;13.55;;;10.20;;
42132;SDS011;70517;48.192;16.278;2023-06-10T08:36:23;10.90;;;9.80;;
42132;SDS011;70517;48.192;16.278;2023-06-10T08:39:23;10.57;;;9.43;;
42132;SDS011;70517;48.192;16.278;2023-06-10T08:42:33;10.32;;;9.38;;
42132;SDS011;70517;48.192;16.278;2023-06-10T08:45:36;10.60;;;9.57;;
42132;SDS011;70517;48.192;16.278;2023-06-10T08:48:39;9.25;;;8.30;;
42132;SDS011;70517;48.192;16.278;2023-06-10T08:51:41;8.95;;;8.05;;
42132;SDS011;70517;48.192;16.278;2023-06-10T08:54:43;8.63;;;7.75;;
42132;SDS011;70517;48.192;16.278;2023-06-10T08:57:47;9.75;;;8.45;;
42132;SDS011;70517;48.192;16.278;2023-06-10T09:00:48;8.75;;;7.95;;
42132;SDS011;70517;48.192;16.278;2023-06-10T09:03:49;8.48;;;7.45;;
42132;SDS011;70517;48.192;16.278;2023-06-10T09:06:50;8.38;;;7.47;;
42132;SDS011;70517;48.192;16.278;2023-06-10T09:09:51;8.55;;;7.68;;
42132;SDS011;70517;48.192;16.278;2023-06-10T09:12:53;8.90;;;7.47;;
42132;SDS011;70517;48.192;16.278;2023-06-10T09:15:54;8.90;;;7.32;;
42132;SDS011;70517;48.192;16.278;2023-06-10T09:18:56;11.82;;;7.68;;
42132;SDS011;70517;48.192;16.278;2023-06-10T09:21:56;8.50;;;7.72;;
42132;SDS011;70517;48.192;16.278;2023-06-10T09:25:07;8.80;;;8.00;;
42132;SDS011;70517;48.192;16.278;2023-06-10T09:28:15;7.90;;;7.20;;
42132;SDS011;70517;48.192;16.278;2023-06-10T09:31:15;8.18;;;7.45;;
42132;SDS011;70517;48.192;16.278;2023-06-10T09:34:18;6.68;;;5.97;;
42132;SDS011;70517;48.192;16.278;2023-06-10T09:37:24;8.75;;;7.85;;
42132;SDS011;70517;48.192;16.278;2023-06-10T09:40:24;10.25;;;7.75;;
42132;SDS011;70517;48.192;16.278;2023-06-10T09:43:38;7.75;;;6.82;;
42132;SDS011;70517;48.192;16.278;2023-06-10T09:46:38;7.28;;;6.63;;
42132;SDS011;70517;48.192;16.278;2023-06-10T09:49:38;7.30;;;6.70;;
42132;SDS011;70517;48.192;16.278;2023-06-10T09:52:39;7.60;;;6.90;;
42132;SDS011;70517;48.192;16.278;2023-06-10T09:55:40;7.70;;;6.77;;
42132;SDS011;70517;48.192;16.278;2023-06-10T09:58:40;8.18;;;7.38;;
42132;SDS011;70517;48.192;16.278;2023-06-10T10:01:43;8.07;;;7.38;;
42132;SDS011;70517;48.192;16.278;2023-06-10T10:04:43;8.20;;;7.50;;
42132;SDS011;70517;48.192;16.278;2023-06-10T10:07:44;8.27;;;7.47;;
42132;SDS011;70517;48.192;16.278;2023-06-10T10:10:44;8.57;;;7.78;;
42132;SDS011;70517;48.192;16.278;2023-06-10T10:13:45;9.17;;;8.27;;
42132;SDS011;70517;48.192;16.278;2023-06-10T10:16:46;8.30;;;7.50;;
42132;SDS011;70517;48.192;16.278;2023-06-10T10:19:48;8.30;;;7.53;;
42132;SDS011;70517;48.192;16.278;2023-06-10T10:22:48;7.32;;;6.68;;
42132;SDS011;70517;48.192;16.278;2023-06-10T10:25:51;7.43;;;6.75;;
42132;SDS011;70517;48.192;16.278;2023-06-10T10:29:00;8.05;;;7.25;;
42132;SDS011;70517;48.192;16.278;2023-06-10T10:32:03;8.45;;;7.75;;
42132;SDS011;70517;48.192;16.278;2023-06-10T10:35:12;8.20;;;7.50;;
42132;SDS011;70517;48.192;16.278;2023-06-10T10:38:13;7.80;;;7.05;;
42132;SDS011;70517;48.192;16.278;2023-06-10T10:41:13;7.82;;;7.13;;
42132;SDS011;70517;48.192;16.278;2023-06-10T10:44:14;7.95;;;6.93;;
42132;SDS011;70517;48.192;16.278;2023-06-10T10:47:16;7.78;;;6.97;;
42132;SDS011;70517;48.192;16.278;2023-06-10T10:50:20;7.53;;;6.93;;
42132;SDS011;70517;48.192;16.278;2023-06-10T10:53:20;7.80;;;7.00;;
42132;SDS011;70517;48.192;16.278;2023-06-10T10:56:21;8.00;;;7.17;;
42132;SDS011;70517;48.192;16.278;2023-06-10T10:59:21;8.23;;;7.53;;
42132;SDS011;70517;48.192;16.278;2023-06-10T11:05:39;7.68;;;6.97;;
42132;SDS011;70517;48.192;16.278;2023-06-10T11:11:49;8.33;;;7.60;;
42132;SDS011;70517;48.192;16.278;2023-06-10T11:14:55;7.93;;;7.22;;
42132;SDS011;70517;48.192;16.278;2023-06-10T11:21:11;8.35;;;7.57;;
42132;SDS011;70517;48.192;16.278;2023-06-10T11:24:12;8.07;;;7.40;;
42132;SDS011;70517;48.192;16.278;2023-06-10T11:27:14;8.95;;;6.88;;
42132;SDS011;70517;48.192;16.278;2023-06-10T11:30:18;8.32;;;7.63;;
42132;SDS011;70517;48.192;16.278;2023-06-10T11:33:19;6.78;;;6.07;;
42132;SDS011;70517;48.192;16.278;2023-06-10T11:36:20;6.33;;;5.83;;
42132;SDS011;70517;48.192;16.278;2023-06-10T11:39:20;6.63;;;6.00;;
42132;SDS011;70517;48.192;16.278;2023-06-10T11:42:21;6.97;;;6.43;;
42132;SDS011;70517;48.192;16.278;2023-06-10T11:45:22;7.15;;;6.40;;
42132;SDS011;70517;48.192;16.278;2023-06-10T11:48:22;5.78;;;5.28;;
42132;SDS011;70517;48.192;16.278;2023-06-10T11:51:27;5.93;;;5.43;;
42132;SDS011;70517;48.192;16.278;2023-06-10T11:54:27;6.95;;;6.35;;
42132;SDS011;70517;48.192;16.278;2023-06-10T11:57:27;6.93;;;6.43;;
42132;SDS011;70517;48.192;16.278;2023-06-10T12:00:28;5.80;;;5.30;;
42132;SDS011;70517;48.192;16.278;2023-06-10T12:03:35;6.47;;;5.87;;
42132;SDS011;70517;48.192;16.278;2023-06-10T12:06:47;6.82;;;6.32;;
42132;SDS011;70517;48.192;16.278;2023-06-10T12:09:49;6.22;;;5.68;;
42132;SDS011;70517;48.192;16.278;2023-06-10T12:12:58;6.18;;;5.57;;
42132;SDS011;70517;48.192;16.278;2023-06-10T12:16:08;7.37;;;5.20;;
42132;SDS011;70517;48.192;16.278;2023-06-10T12:19:08;5.38;;;4.97;;
42132;SDS011;70517;48.192;16.278;2023-06-10T12:22:09;6.90;;;6.22;;
42132;SDS011;70517;48.192;16.278;2023-06-10T12:25:10;6.40;;;5.90;;
42132;SDS011;70517;48.192;16.278;2023-06-10T12:28:10;5.82;;;5.32;;
42132;SDS011;70517;48.192;16.278;2023-06-10T12:31:11;5.85;;;5.45;;
42132;SDS011;70517;48.192;16.278;2023-06-10T12:34:11;5.93;;;5.47;;
42132;SDS011;70517;48.192;16.278;2023-06-10T12:37:11;5.57;;;5.17;;
42132;SDS011;70517;48.192;16.278;2023-06-10T12:40:13;5.50;;;5.10;;
42132;SDS011;70517;48.192;16.278;2023-06-10T12:43:18;5.67;;;5.17;;
42132;SDS011;70517;48.192;16.278;2023-06-10T12:46:19;5.50;;;5.00;;
42132;SDS011;70517;48.192;16.278;2023-06-10T12:49:19;7.20;;;5.23;;
42132;SDS011;70517;48.192;16.278;2023-06-10T12:52:20;5.07;;;4.68;;
42132;SDS011;70517;48.192;16.278;2023-06-10T12:55:20;5.03;;;4.63;;
42132;SDS011;70517;48.192;16.278;2023-06-10T12:58:20;5.18;;;4.78;;
42132;SDS011;70517;48.192;16.278;2023-06-10T13:01:21;5.65;;;5.15;;
42132;SDS011;70517;48.192;16.278;2023-06-10T13:04:22;7.70;;;5.53;;
42132;SDS011;70517;48.192;16.278;2023-06-10T13:07:22;6.60;;;6.00;;
42132;SDS011;70517;48.192;16.278;2023-06-10T13:10:23;6.10;;;5.45;;
42132;SDS011;70517;48.192;16.278;2023-06-10T13:13:24;5.57;;;5.18;;
42132;SDS011;70517;48.192;16.278;2023-06-10T13:16:25;5.95;;;5.07;;
42132;SDS011;70517;48.192;16.278;2023-06-10T13:19:25;5.47;;;4.97;;
42132;SDS011;70517;48.192;16.278;2023-06-10T13:22:29;5.33;;;4.83;;
42132;SDS011;70517;48.192;16.278;2023-06-10T13:25:30;6.07;;;5.47;;
42132;SDS011;70517;48.192;16.278;2023-06-10T13:28:30;6.43;;;5.68;;
42132;SDS011;70517;48.192;16.278;2023-06-10T13:31:31;5.85;;;5.35;;
42132;SDS011;70517;48.192;16.278;2023-06-10T13:34:32;5.80;;;5.30;;
42132;SDS011;70517;48.192;16.278;2023-06-10T13:37:32;6.22;;;5.63;;
42132;SDS011;70517;48.192;16.278;2023-06-10T13:40:33;5.78;;;5.25;;
42132;SDS011;70517;48.192;16.278;2023-06-10T13:43:33;5.45;;;4.95;;
42132;SDS011;70517;48.192;16.278;2023-06-10T13:46:34;5.88;;;5.32;;
42132;SDS011;70517;48.192;16.278;2023-06-10T13:49:34;5.40;;;5.00;;
42132;SDS011;70517;48.192;16.278;2023-06-10T13:52:34;6.63;;;6.03;;
42132;SDS011;70517;48.192;16.278;2023-06-10T13:55:34;6.03;;;5.40;;
42132;SDS011;70517;48.192;16.278;2023-06-10T13:58:35;6.30;;;5.80;;
42132;SDS011;70517;48.192;16.278;2023-06-10T14:01:41;6.35;;;5.80;;
42132;SDS011;70517;48.192;16.278;2023-06-10T14:04:42;5.88;;;5.40;;
42132;SDS011;70517;48.192;16.278;2023-06-10T14:07:42;5.97;;;5.47;;
42132;SDS011;70517;48.192;16.278;2023-06-10T14:10:42;6.10;;;5.60;;
42132;SDS011;70517;48.192;16.278;2023-06-10T14:13:43;6.33;;;5.63;;
42132;SDS011;70517;48.192;16.278;2023-06-10T14:16:43;6.00;;;5.50;;
42132;SDS011;70517;48.192;16.278;2023-06-10T14:19:43;6.17;;;5.67;;
42132;SDS011;70517;48.192;16.278;2023-06-10T14:22:43;5.77;;;5.17;;
42132;SDS011;70517;48.192;16.278;2023-06-10T14:25:44;5.70;;;5.20;;
42132;SDS011;70517;48.192;16.278;2023-06-10T14:28:44;5.40;;;5.00;;
42132;SDS011;70517;48.192;16.278;2023-06-10T14:31:44;6.72;;;5.45;;
42132;SDS011;70517;48.192;16.278;2023-06-10T14:34:45;6.13;;;5.63;;
42132;SDS011;70517;48.192;16.278;2023-06-10T14:37:46;6.47;;;5.88;;
42132;SDS011;70517;48.192;16.278;2023-06-10T14:40:47;6.13;;;5.60;;
42132;SDS011;70517;48.192;16.278;2023-06-10T14:43:47;5.40;;;5.00;;
42132;SDS011;70517;48.192;16.278;2023-06-10T14:46:48;5.95;;;5.45;;
42132;SDS011;70517;48.192;16.278;2023-06-10T14:49:48;5.37;;;4.87;;
42132;SDS011;70517;48.192;16.278;2023-06-10T14:52:49;5.70;;;5.20;;
42132;SDS011;70517;48.192;16.278;2023-06-10T14:55:49;6.77;;;5.87;;
42132;SDS011;70517;48.192;16.278;2023-06-10T14:58:49;6.78;;;6.18;;
42132;SDS011;70517;48.192;16.278;2023-06-10T15:01:50;6.97;;;5.93;;
42132;SDS011;70517;48.192;16.278;2023-06-10T15:04:50;5.93;;;5.33;;
42132;SDS011;70517;48.192;16.278;2023-06-10T15:07:50;6.50;;;5.90;;
42132;SDS011;70517;48.192;16.278;2023-06-10T15:10:50;6.53;;;5.93;;
42132;SDS011;70517;48.192;16.278;2023-06-10T15:13:51;6.60;;;6.00;;
42132;SDS011;70517;48.192;16.278;2023-06-10T15:16:51;6.40;;;5.90;;
42132;SDS011;70517;48.192;16.278;2023-06-10T15:19:51;7.00;;;6.30;;
42132;SDS011;70517;48.192;16.278;2023-06-10T15:22:51;5.63;;;5.13;;
42132;SDS011;70517;48.192;16.278;2023-06-10T15:25:53;6.60;;;6.00;;
42132;SDS011;70517;48.192;16.278;2023-06-10T15:28:53;6.70;;;6.07;;
42132;SDS011;70517;48.192;16.278;2023-06-10T15:31:54;7.32;;;6.63;;
42132;SDS011;70517;48.192;16.278;2023-06-10T15:34:54;7.68;;;6.95;;
42132;SDS011;70517;48.192;16.278;2023-06-10T15:37:54;7.37;;;6.67;;
42132;SDS011;70517;48.192;16.278;2023-06-10T15:40:55;7.03;;;6.43;;
42132;SDS011;70517;48.192;16.278;2023-06-10T15:43:55;6.85;;;5.50;;
42132;SDS011;70517;48.192;16.278;2023-06-10T15:46:56;5.90;;;4.03;;
42132;SDS011;70517;48.192;16.278;2023-06-10T15:49:56;5.27;;;3.60;;
42132;SDS011;70517;48.192;16.278;2023-06-10T15:52:56;3.50;;;3.20;;
42132;SDS011;70517;48.192;16.278;2023-06-10T15:55:56;4.23;;;3.83;;
42132;SDS011;70517;48.192;16.278;2023-06-10T15:58:57;4.32;;;3.55;;
42132;SDS011;70517;48.192;16.278;2023-06-10T16:01:57;4.20;;;3.80;;
42132;SDS011;70517;48.192;16.278;2023-06-10T16:04:57;5.40;;;3.60;;
42132;SDS011;70517;48.192;16.278;2023-06-10T16:07:57;5.60;;;4.17;;
42132;SDS011;70517;48.192;16.278;2023-06-10T16:10:58;6.90;;;4.75;;
42132;SDS011;70517;48.192;16.278;2023-06-10T16:13:58;4.33;;;3.77;;
42132;SDS011;70517;48.192;16.278;2023-06-10T16:16:59;4.78;;;3.88;;
42132;SDS011;70517;48.192;16.278;2023-06-10T16:20:00;6.65;;;4.55;;
42132;SDS011;70517;48.192;16.278;2023-06-10T16:23:06;5.80;;;3.97;;
42132;SDS011;70517;48.192;16.278;2023-06-10T16:26:06;5.07;;;3.60;;
42132;SDS011;70517;48.192;16.278;2023-06-10T16:32:07;3.35;;;2.83;;
42132;SDS011;70517;48.192;16.278;2023-06-10T16:38:07;3.70;;;3.35;;
42132;SDS011;70517;48.192;16.278;2023-06-10T16:44:08;3.53;;;3.22;;
42132;SDS011;70517;48.192;16.278;2023-06-10T16:50:08;4.50;;;3.83;;
42132;SDS011;70517;48.192;16.278;2023-06-10T16:56:09;3.67;;;3.33;;
42132;SDS011;70517;48.192;16.278;2023-06-10T17:02:09;3.20;;;2.80;;
42132;SDS011;70517;48.192;16.278;2023-06-10T17:08:10;4.32;;;3.13;;
42132;SDS011;70517;48.192;16.278;2023-06-10T17:14:10;3.42;;;2.70;;
42132;SDS011;70517;48.192;16.278;2023-06-10T17:20:11;4.35;;;3.03;;
42132;SDS011;70517;48.192;16.278;2023-06-10T17:26:11;3.23;;;2.93;;
42132;SDS011;70517;48.192;16.278;2023-06-10T17:32:12;3.83;;;2.88;;
42132;SDS011;70517;48.192;16.278;2023-06-10T17:35:12;3.73;;;3.33;;
42132;SDS011;70517;48.192;16.278;2023-06-10T17:41:13;3.73;;;2.90;;
42132;SDS011;70517;48.192;16.278;2023-06-10T17:44:14;3.50;;;3.00;;
42132;SDS011;70517;48.192;16.278;2023-06-10T17:47:15;4.93;;;3.75;;
42132;SDS011;70517;48.192;16.278;2023-06-10T17:50:16;4.30;;;3.90;;
42132;SDS011;70517;48.192;16.278;2023-06-10T17:56:16;3.50;;;3.20;;
42132;SDS011;70517;48.192;16.278;2023-06-10T18:02:17;3.47;;;3.15;;
42132;SDS011;70517;48.192;16.278;2023-06-10T18:08:17;3.15;;;2.85;;
42132;SDS011;70517;48.192;16.278;2023-06-10T18:14:17;3.40;;;3.10;;
42132;SDS011;70517;48.192;16.278;2023-06-10T18:20:18;3.05;;;2.75;;
42132;SDS011;70517;48.192;16.278;2023-06-10T18:23:18;4.40;;;3.93;;
42132;SDS011;70517;48.192;16.278;2023-06-10T18:29:18;3.28;;;2.97;;
42132;SDS011;70517;48.192;16.278;2023-06-10T18:32:19;3.97;;;3.17;;
42132;SDS011;70517;48.192;16.278;2023-06-10T18:38:19;3.38;;;2.92;;
42132;SDS011;70517;48.192;16.278;2023-06-10T18:44:20;3.65;;;3.28;;
42132;SDS011;70517;48.192;16.278;2023-06-10T18:47:20;4.03;;;3.63;;
42132;SDS011;70517;48.192;16.278;2023-06-10T18:53:20;3.85;;;3.47;;
42132;SDS011;70517;48.192;16.278;2023-06-10T18:56:21;4.77;;;4.37;;
42132;SDS011;70517;48.192;16.278;2023-06-10T18:59:21;6.00;;;4.80;;
42132;SDS011;70517;48.192;16.278;2023-06-10T19:05:21;5.40;;;3.97;;
42132;SDS011;70517;48.192;16.278;2023-06-10T19:08:22;4.75;;;4.35;;
42132;SDS011;70517;48.192;16.278;2023-06-10T19:11:22;4.63;;;4.13;;
42132;SDS011;70517;48.192;16.278;2023-06-10T19:17:23;4.40;;;3.72;;
42132;SDS011;70517;48.192;16.278;2023-06-10T19:23:23;3.67;;;3.38;;
42132;SDS011;70517;48.192;16.278;2023-06-10T19:29:24;3.53;;;3.22;;
42132;SDS011;70517;48.192;16.278;2023-06-10T19:32:26;4.40;;;4.00;;
42132;SDS011;70517;48.192;16.278;2023-06-10T19:35:26;4.55;;;4.15;;
42132;SDS011;70517;48.192;16.278;2023-06-10T19:38:27;4.47;;;3.80;;
42132;SDS011;70517;48.192;16.278;2023-06-10T19:44:28;3.80;;;3.40;;
42132;SDS011;70517;48.192;16.278;2023-06-10T19:47:28;4.07;;;3.77;;
42132;SDS011;70517;48.192;16.278;2023-06-10T19:53:29;3.88;;;3.50;;
42132;SDS011;70517;48.192;16.278;2023-06-10T19:59:29;4.43;;;3.20;;
42132;SDS011;70517;48.192;16.278;2023-06-10T20:02:30;4.93;;;3.92;;
42132;SDS011;70517;48.192;16.278;2023-06-10T20:08:33;3.97;;;3.55;;
42132;SDS011;70517;48.192;16.278;2023-06-10T20:14:34;4.50;;;3.28;;
42132;SDS011;70517;48.192;16.278;2023-06-10T20:17:34;3.93;;;3.53;;
42132;SDS011;70517;48.192;16.278;2023-06-10T20:20:35;4.60;;;3.28;;
42132;SDS011;70517;48.192;16.278;2023-06-10T20:23:36;4.23;;;3.83;;
42132;SDS011;70517;48.192;16.278;2023-06-10T20:29:36;4.65;;;3.25;;
42132;SDS011;70517;48.192;16.278;2023-06-10T20:32:36;3.80;;;3.40;;
42132;SDS011;70517;48.192;16.278;2023-06-10T20:38:36;3.40;;;3.10;;
42132;SDS011;70517;48.192;16.278;2023-06-10T20:44:37;3.17;;;2.83;;
42132;SDS011;70517;48.192;16.278;2023-06-10T20:50:37;3.38;;;3.08;;
42132;SDS011;70517;48.192;16.278;2023-06-10T20:53:37;3.90;;;3.60;;
42132;SDS011;70517;48.192;16.278;2023-06-10T20:56:38;5.37;;;4.27;;
42132;SDS011;70517;48.192;16.278;2023-06-10T21:02:38;3.70;;;3.40;;
42132;SDS011;70517;48.192;16.278;2023-06-10T21:05:38;5.47;;;3.43;;
42132;SDS011;70517;48.192;16.278;2023-06-10T21:08:38;4.63;;;4.23;;
42132;SDS011;70517;48.192;16.278;2023-06-10T21:11:39;5.20;;;4.70;;
42132;SDS011;70517;48.192;16.278;2023-06-10T21:14:39;5.82;;;4.93;;
42132;SDS011;70517;48.192;16.278;2023-06-10T21:17:39;6.40;;;5.80;;